Terminal Aerodrome Forecast
Issued by NWS

Home | Current Version | Previous Version | Text Only | Print | Product List | Glossary On
Versions: 1 2 3 4 5 6 7 8 9 10 11 12 13 14 15 16 17 18 19
000
FTUS43 KAPX 240500
TAFTVC
TAF
KTVC 240520Z 2406/2506 02004KT P6SM BKN200
     FM241400 13007KT P6SM VCSH BKN100
     FM242000 11012G24KT P6SM SCT060 OVC100
     FM250100 10008G15KT P6SM OVC100 WS020/14037KT
     FM250400 10008KT P6SM -RA OVC050 WS020/15040KT=

USA.gov is the U.S. government's official web portal to all federal, state and local government web resources and services.